createdAt,value
2022-09-09T00:04:33.168Z,101033.50
2022-09-09T00:09:43.151Z,101076.31
2022-09-09T00:15:28.129Z,101074.78
2022-09-09T00:20:27.198Z,101077.81
2022-09-09T00:25:34.028Z,101042.19
2022-09-09T00:30:35.807Z,101046.50
2022-09-09T00:35:41.918Z,101043.91
2022-09-09T00:41:03.059Z,101078.06
2022-09-09T00:46:23.999Z,101074.59
2022-09-09T00:51:38.785Z,101059.81
2022-09-09T00:56:51.902Z,101032.50
2022-09-09T01:01:53.493Z,101038.84
2022-09-09T01:06:56.303Z,101050.63
2022-09-09T01:12:18.053Z,101072.56
2022-09-09T01:17:26.846Z,101068.72
2022-09-09T01:22:44.418Z,101046.81
2022-09-09T01:27:44.076Z,101067.38
2022-09-09T01:32:47.316Z,101022.78
2022-09-09T01:37:52.328Z,101016.19
2022-09-09T01:42:51.455Z,101006.63
2022-09-09T01:47:53.444Z,101008.34
2022-09-09T01:53:00.787Z,101000.28
2022-09-09T01:58:23.845Z,101041.72
2022-09-09T02:03:35.049Z,101031.34
2022-09-09T02:08:49.432Z,101009.72
2022-09-09T02:13:55.203Z,101003.31
2022-09-09T02:19:05.795Z,101043.00
2022-09-09T02:24:17.485Z,101001.75
2022-09-09T02:29:29.365Z,101021.16
2022-09-09T02:34:31.687Z,101050.84
2022-09-09T02:39:32.290Z,101037.91
2022-09-09T02:44:31.865Z,101034.69
2022-09-09T02:50:15.426Z,101019.19
2022-09-09T02:55:29.010Z,101061.34
2022-09-09T03:00:32.222Z,101023.97
2022-09-09T03:05:34.160Z,101033.22
2022-09-09T03:10:34.668Z,101019.56
2022-09-09T03:15:33.979Z,101031.88
2022-09-09T03:20:33.232Z,101011.31
2022-09-09T03:25:34.969Z,101004.16
2022-09-09T03:30:35.774Z,101001.50
2022-09-09T03:35:38.067Z,101045.78
2022-09-09T03:40:37.114Z,101050.63
2022-09-09T03:45:41.654Z,101022.00
2022-09-09T03:50:43.239Z,101032.69
2022-09-09T03:55:44.488Z,101030.22
2022-09-09T04:00:43.869Z,101014.56
2022-09-09T04:05:45.984Z,101055.75
2022-09-09T04:10:49.910Z,101003.78
2022-09-09T04:15:54.058Z,101002.06
2022-09-09T04:21:01.274Z,101054.59
2022-09-09T04:26:03.193Z,101019.91
2022-09-09T04:31:34.228Z,101059.56
2022-09-09T04:36:37.403Z,101027.38
2022-09-09T04:41:38.872Z,101016.13
2022-09-09T04:46:38.040Z,101031.16
2022-09-09T04:51:37.324Z,101044.19
2022-09-09T04:56:44.437Z,101037.50
2022-09-09T05:01:43.730Z,101031.34
2022-09-09T05:06:44.241Z,101057.41
2022-09-09T05:11:45.031Z,101051.63
2022-09-09T05:16:54.368Z,101030.97
2022-09-09T05:21:57.234Z,101030.97
2022-09-09T05:27:03.664Z,101026.94
2022-09-09T05:32:02.215Z,101070.47
2022-09-09T05:37:03.697Z,101027.75
2022-09-09T05:42:05.610Z,101044.94
2022-09-09T05:47:05.347Z,101034.91
2022-09-09T05:52:06.268Z,101026.78
2022-09-09T05:57:09.238Z,101045.59
2022-09-09T06:02:10.044Z,101018.19
2022-09-09T06:07:12.482Z,101029.06
2022-09-09T06:12:15.443Z,100977.50
2022-09-09T06:17:16.303Z,100974.78
2022-09-09T06:22:14.227Z,101026.06
2022-09-09T06:27:16.673Z,101002.47
2022-09-09T06:32:17.321Z,101023.84
2022-09-09T06:37:20.344Z,101030.47
2022-09-09T06:42:21.553Z,101010.75
2022-09-09T06:47:48.522Z,101037.91
2022-09-09T06:52:48.897Z,101013.06
2022-09-09T06:57:46.709Z,101040.88
2022-09-09T07:02:49.239Z,101020.25
2022-09-09T07:07:49.316Z,101018.88
2022-09-09T07:12:54.230Z,101041.31
2022-09-09T07:17:55.074Z,101015.56
2022-09-09T07:22:56.523Z,101006.06
2022-09-09T07:27:58.500Z,101001.56
2022-09-09T07:33:01.166Z,101010.19
2022-09-09T07:38:07.753Z,101028.72
2022-09-09T07:43:06.356Z,101021.88
2022-09-09T07:48:06.367Z,101046.81
2022-09-09T07:53:07.613Z,101042.84
2022-09-09T07:58:06.210Z,101060.25
2022-09-09T08:03:05.081Z,101051.44
2022-09-09T08:08:04.844Z,101011.56
2022-09-09T08:13:19.086Z,101021.19
2022-09-09T08:18:19.863Z,101071.19
2022-09-09T08:23:18.782Z,101037.47
2022-09-09T08:28:19.248Z,101015.47
2022-09-09T08:33:20.393Z,101018.09
2022-09-09T08:38:25.504Z,101018.03
2022-09-09T08:43:24.103Z,100980.53
2022-09-09T08:48:53.524Z,100987.13
2022-09-09T08:53:57.741Z,100989.59
2022-09-09T08:59:03.935Z,100983.38
2022-09-09T09:04:33.981Z,100999.47
2022-09-09T09:10:00.541Z,100960.41
2022-09-09T09:15:02.562Z,100946.47
2022-09-09T09:20:06.252Z,100971.19
2022-09-09T09:25:07.795Z,100994.03
2022-09-09T09:30:29.868Z,100976.06
2022-09-09T09:35:41.588Z,100935.47
2022-09-09T09:40:56.399Z,100935.88
2022-09-09T09:46:14.370Z,100931.28
2022-09-09T09:51:21.645Z,100949.63
2022-09-09T09:56:46.138Z,100961.47
2022-09-09T10:01:45.674Z,100925.09
2022-09-09T10:06:46.223Z,100932.13
2022-09-09T10:12:06.955Z,100960.66
2022-09-09T10:17:37.274Z,100966.06
2022-09-09T10:22:39.922Z,100949.13
2022-09-09T10:28:03.929Z,100955.41
2022-09-09T10:33:40.703Z,100929.47
2022-09-09T10:38:47.020Z,100913.59
2022-09-09T10:44:06.207Z,100949.06
2022-09-09T10:49:39.522Z,100940.41
2022-09-09T10:55:17.675Z,100914.53
2022-09-09T11:00:43.691Z,100942.41
2022-09-09T11:05:49.573Z,100915.09
2022-09-09T11:11:20.125Z,100942.69
2022-09-09T11:17:02.740Z,100910.41
2022-09-09T11:22:09.888Z,100896.69
2022-09-09T11:27:22.021Z,100899.56
2022-09-09T11:32:42.147Z,100926.38
2022-09-09T11:38:40.042Z,100876.25
2022-09-09T11:43:46.409Z,100887.94
2022-09-09T11:48:59.911Z,100870.75
2022-09-09T11:54:03.786Z,100891.75
2022-09-09T11:59:23.275Z,100892.34
2022-09-09T12:04:28.699Z,100896.97
2022-09-09T12:09:47.635Z,100894.16
2022-09-09T12:15:06.338Z,100872.66
2022-09-09T12:20:17.228Z,100884.31
2022-09-09T12:25:42.242Z,100872.06
2022-09-09T12:31:14.720Z,100872.53
2022-09-09T12:36:34.542Z,100845.00
2022-09-09T12:41:36.021Z,100839.59
2022-09-09T12:46:45.824Z,100848.97
2022-09-09T12:51:47.122Z,100821.47
2022-09-09T12:56:48.007Z,100810.84
2022-09-09T13:01:58.114Z,100798.78
2022-09-09T13:07:08.162Z,100805.72
2022-09-09T13:12:08.396Z,100793.56
2022-09-09T13:17:19.629Z,100813.88
2022-09-09T13:22:25.817Z,100807.47
2022-09-09T13:27:37.396Z,100799.16
2022-09-09T13:32:35.463Z,100810.69
2022-09-09T13:37:44.742Z,100812.59
2022-09-09T13:42:43.815Z,100783.31
2022-09-09T13:47:46.553Z,100783.63
2022-09-09T13:52:52.943Z,100769.63
2022-09-09T13:57:58.130Z,100791.91
2022-09-09T14:02:59.016Z,100763.19
2022-09-09T14:07:57.719Z,100751.28
2022-09-09T14:12:57.215Z,100757.31
2022-09-09T14:17:55.692Z,100769.63
2022-09-09T14:23:03.343Z,100779.19
2022-09-09T14:28:10.247Z,100781.03
2022-09-09T14:33:12.886Z,100776.53
2022-09-09T14:38:18.966Z,100769.84
2022-09-09T14:43:23.812Z,100747.69
2022-09-09T14:48:24.073Z,100760.56
2022-09-09T14:53:24.249Z,100753.84
2022-09-09T14:58:22.806Z,100783.13
2022-09-09T15:03:23.207Z,100779.31
2022-09-09T15:08:24.801Z,100792.38
2022-09-09T15:13:35.700Z,100773.00
2022-09-09T15:18:37.708Z,100787.66
2022-09-09T15:23:39.205Z,100818.06
2022-09-09T15:28:42.346Z,100809.88
2022-09-09T15:33:43.484Z,100823.22
2022-09-09T15:38:43.947Z,100843.25
2022-09-09T15:43:53.004Z,100834.38
2022-09-09T15:48:54.303Z,100811.97
2022-09-09T15:53:59.499Z,100840.66
2022-09-09T15:58:58.737Z,100840.13
2022-09-09T16:03:57.715Z,100857.00
2022-09-09T16:09:02.702Z,100850.00
2022-09-09T16:14:05.203Z,100838.88
2022-09-09T16:19:15.943Z,100859.38
2022-09-09T16:24:19.995Z,100843.91
2022-09-09T16:29:25.239Z,100825.88
2022-09-09T16:34:26.989Z,100837.25
2022-09-09T16:39:26.721Z,100815.22
2022-09-09T16:44:32.273Z,100817.66
2022-09-09T16:49:35.681Z,100838.00
2022-09-09T16:54:38.446Z,100849.53
2022-09-09T16:59:39.061Z,100846.28
2022-09-09T17:04:38.439Z,100821.16
2022-09-09T17:09:37.610Z,100826.75
2022-09-09T17:14:35.962Z,100833.06
2022-09-09T17:19:37.899Z,100828.69
2022-09-09T17:24:39.724Z,100849.13
2022-09-09T17:29:38.739Z,100869.66
2022-09-09T17:34:40.384Z,100859.94
2022-09-09T17:39:39.408Z,100854.94
2022-09-09T17:44:41.229Z,100851.88
2022-09-09T17:49:40.693Z,100845.13
2022-09-09T17:54:42.661Z,100856.41
2022-09-09T17:59:45.569Z,100847.25
2022-09-09T18:04:47.521Z,100883.28
2022-09-09T18:09:47.026Z,100877.78
2022-09-09T18:14:47.278Z,100881.94
2022-09-09T18:19:47.129Z,100878.72
2022-09-09T18:24:48.682Z,100888.03
2022-09-09T18:29:48.748Z,100901.19
2022-09-09T18:34:47.123Z,100904.84
2022-09-09T18:39:46.020Z,100888.28
2022-09-09T18:44:44.648Z,100888.06
2022-09-09T18:49:43.538Z,100914.56
2022-09-09T18:54:46.082Z,100896.97
2022-09-09T18:59:44.465Z,100899.91
2022-09-09T19:04:42.966Z,100905.00
2022-09-09T19:09:44.428Z,100911.97
2022-09-09T19:14:45.582Z,100893.78
2022-09-09T19:19:44.586Z,100853.44
2022-09-09T19:24:46.077Z,100863.34
2022-09-09T19:29:45.022Z,100868.44
2022-09-09T19:34:44.248Z,100849.72
2022-09-09T19:39:43.022Z,100862.56
2022-09-09T19:44:44.247Z,100874.59
2022-09-09T19:49:46.912Z,100861.72
2022-09-09T19:54:45.874Z,100877.78
2022-09-09T19:59:46.149Z,100854.28
2022-09-09T20:04:44.953Z,100846.25
2022-09-09T20:09:43.853Z,100858.81
2022-09-09T20:14:42.573Z,100859.34
2022-09-09T20:19:40.846Z,100839.53
2022-09-09T20:24:39.033Z,100833.38
2022-09-09T20:29:37.430Z,100822.19
2022-09-09T20:34:38.372Z,100833.13
2022-09-09T20:39:37.553Z,100881.81
2022-09-09T20:44:35.879Z,100853.72
2022-09-09T20:49:35.507Z,100864.41
2022-09-09T20:54:37.934Z,100861.72
2022-09-09T20:59:38.869Z,100881.78
2022-09-09T21:04:38.911Z,100878.53
2022-09-09T21:09:37.661Z,100873.19
2022-09-09T21:14:36.367Z,100865.69
2022-09-09T21:19:36.052Z,100888.44
2022-09-09T21:24:36.582Z,100872.88
2022-09-09T21:29:34.461Z,100876.91
2022-09-09T21:34:35.108Z,100846.19
2022-09-09T21:39:35.217Z,100858.44
2022-09-09T21:44:34.238Z,100841.53
2022-09-09T21:49:33.056Z,100853.88
2022-09-09T21:54:31.861Z,100873.66
2022-09-09T21:59:32.652Z,100857.47
2022-09-09T22:04:31.597Z,100827.72
2022-09-09T22:09:29.344Z,100842.22
2022-09-09T22:14:28.170Z,100830.09
2022-09-09T22:19:27.326Z,100860.91
2022-09-09T22:24:29.014Z,100837.88
2022-09-09T22:29:31.819Z,100820.78
2022-09-09T22:34:32.503Z,100828.59
2022-09-09T22:39:30.950Z,100848.94
2022-09-09T22:44:29.990Z,100838.94
2022-09-09T22:49:31.517Z,100821.56
2022-09-09T22:54:32.629Z,100816.09
2022-09-09T22:59:31.729Z,100816.31
2022-09-09T23:04:30.721Z,100844.88
2022-09-09T23:09:30.163Z,100817.84
2022-09-09T23:14:29.410Z,100799.88
2022-09-09T23:19:28.972Z,100814.22
2022-09-09T23:24:26.760Z,100819.03
2022-09-09T23:29:26.150Z,100813.84
2022-09-09T23:34:25.585Z,100820.47
2022-09-09T23:39:24.485Z,100799.22
2022-09-09T23:44:23.904Z,100806.47
2022-09-09T23:49:34.457Z,100789.91
2022-09-09T23:54:34.523Z,100798.19
2022-09-09T23:59:35.220Z,100779.09
